Time;durP1;ratioP1;P1;durP2;ratioP2;P2;SDS_P1;SDS_P2;PMS_P1;PMS_P2;Temp;Humidity;BMP_temperature;BMP_pressure;BME280_temperature;BME280_humidity;BME280_pressure;Samples;Min_cycle;Max_cycle;Signal;HPM_P1;HPM_P2
2021/07/22 00:01:00;;;;;;;7.10;4.97;;;19.80;72.80;;;;;;2071884;28;20172;-82
2021/07/22 00:02:01;;;;;;;7.53;5.22;;;19.80;72.80;;;;;;2078010;28;20093;-83
2021/07/22 00:03:01;;;;;;;6.97;4.63;;;19.70;72.80;;;;;;2078924;28;20453;-83
2021/07/22 00:04:02;;;;;;;6.57;4.70;;;19.70;72.90;;;;;;2073258;28;20060;-83
2021/07/22 00:05:05;;;;;;;6.82;4.97;;;19.70;73.10;;;;;;2070912;28;20026;-82
2021/07/22 00:06:06;;;;;;;7.88;5.25;;;19.70;73.10;;;;;;2069062;28;20022;-82
2021/07/22 00:07:06;;;;;;;7.10;5.32;;;19.60;73.20;;;;;;2079682;28;20075;-83
2021/07/22 00:08:11;;;;;;;7.43;5.15;;;19.60;73.30;;;;;;2080710;28;20542;-82
2021/07/22 00:09:12;;;;;;;7.38;5.20;;;19.60;73.40;;;;;;2064484;28;20062;-83
2021/07/22 00:10:14;;;;;;;7.13;4.82;;;19.50;73.40;;;;;;2041687;28;20028;-82
2021/07/22 00:11:15;;;;;;;7.55;5.28;;;19.50;73.50;;;;;;2064950;28;20129;-82
2021/07/22 00:12:16;;;;;;;7.30;5.28;;;19.50;73.70;;;;;;2073796;28;20033;-83
2021/07/22 00:13:16;;;;;;;7.25;5.10;;;19.50;73.80;;;;;;2071584;28;20057;-83
2021/07/22 00:14:17;;;;;;;8.55;5.72;;;19.40;73.80;;;;;;2072135;28;20539;-82
2021/07/22 00:15:18;;;;;;;6.90;4.70;;;19.40;73.90;;;;;;2080718;28;20033;-82
2021/07/22 00:16:19;;;;;;;8.07;5.00;;;19.40;74.00;;;;;;2089779;28;20033;-82
2021/07/22 00:17:19;;;;;;;6.88;4.82;;;19.40;74.10;;;;;;2076155;28;20116;-82
2021/07/22 00:18:20;;;;;;;6.60;4.75;;;19.30;74.10;;;;;;2073708;28;20057;-83
2021/07/22 00:19:21;;;;;;;7.32;5.00;;;19.40;74.20;;;;;;2067274;28;20392;-82
2021/07/22 00:20:21;;;;;;;7.53;5.18;;;19.40;74.20;;;;;;2072548;28;20042;-82
2021/07/22 00:21:22;;;;;;;8.38;5.00;;;19.40;74.20;;;;;;2081887;28;20037;-82
2021/07/22 00:22:23;;;;;;;7.63;5.20;;;19.40;74.20;;;;;;2073347;28;20034;-83
2021/07/22 00:23:23;;;;;;;7.40;5.30;;;19.30;74.20;;;;;;2073541;28;20030;-83
2021/07/22 00:24:25;;;;;;;7.28;4.90;;;19.30;74.30;;;;;;2080959;28;20064;-83
2021/07/22 00:25:26;;;;;;;7.47;5.22;;;19.30;74.60;;;;;;2067692;28;20026;-83
2021/07/22 00:26:27;;;;;;;7.65;5.18;;;19.30;74.50;;;;;;2071717;28;20064;-83
2021/07/22 00:27:27;;;;;;;6.88;4.80;;;19.20;74.50;;;;;;2061900;28;20041;-83
2021/07/22 00:28:28;;;;;;;7.82;5.40;;;19.20;74.70;;;;;;2065311;28;20031;-83
2021/07/22 00:29:30;;;;;;;7.55;5.00;;;19.20;74.70;;;;;;2072863;28;20073;-83
2021/07/22 00:30:31;;;;;;;7.07;4.93;;;19.30;74.80;;;;;;2072793;28;20092;-82
2021/07/22 00:31:32;;;;;;;7.25;4.80;;;19.20;74.70;;;;;;2065080;28;20070;-83
2021/07/22 00:32:33;;;;;;;6.72;4.80;;;19.30;74.80;;;;;;2065321;28;20493;-83
2021/07/22 00:33:34;;;;;;;6.93;4.88;;;19.30;74.80;;;;;;2065390;28;20030;-83
2021/07/22 00:34:34;;;;;;;7.10;4.95;;;19.30;74.80;;;;;;2072116;28;20034;-83
2021/07/22 00:35:35;;;;;;;7.00;5.00;;;19.30;74.90;;;;;;2064126;28;20038;-82
2021/07/22 00:36:36;;;;;;;7.65;5.05;;;19.30;74.80;;;;;;2065210;28;20042;-83
2021/07/22 00:37:36;;;;;;;8.73;5.35;;;19.30;74.80;;;;;;2073874;28;20113;-83
2021/07/22 00:38:37;;;;;;;6.82;5.00;;;19.30;74.90;;;;;;2069938;28;20106;-83
2021/07/22 00:39:37;;;;;;;7.63;5.13;;;19.30;74.80;;;;;;2072126;28;20030;-82
2021/07/22 00:40:45;;;;;;;7.18;5.15;;;19.30;74.90;;;;;;2071533;28;20058;-82
2021/07/22 00:41:45;;;;;;;8.20;4.75;;;19.30;74.90;;;;;;2070402;28;20113;-82
2021/07/22 00:43:03;;;;;;;6.75;4.68;;;19.30;74.90;;;;;;2079198;28;20511;-83
2021/07/22 00:44:04;;;;;;;6.88;4.90;;;19.30;74.90;;;;;;2077335;28;20026;-83
2021/07/22 00:45:05;;;;;;;7.20;4.90;;;19.30;74.90;;;;;;2073524;28;20040;-83
2021/07/22 00:46:05;;;;;;;7.75;5.22;;;19.30;75.00;;;;;;2065406;28;20034;-82
2021/07/22 00:47:06;;;;;;;7.38;5.07;;;19.30;75.00;;;;;;2064337;28;20037;-82
2021/07/22 00:48:07;;;;;;;7.63;4.40;;;19.30;75.10;;;;;;2065549;28;20456;-82
2021/07/22 00:49:11;;;;;;;6.65;4.35;;;19.30;75.20;;;;;;2066239;28;20052;-83
2021/07/22 00:50:12;;;;;;;8.40;5.10;;;19.30;75.20;;;;;;2073293;28;20047;-82
2021/07/22 00:51:13;;;;;;;7.70;5.25;;;19.30;75.20;;;;;;2065127;28;20035;-83
2021/07/22 00:52:13;;;;;;;6.85;4.80;;;19.30;75.20;;;;;;2066128;28;20065;-82
2021/07/22 00:53:14;;;;;;;6.95;4.70;;;19.30;75.20;;;;;;2073414;28;20042;-83
2021/07/22 00:54:14;;;;;;;6.82;4.63;;;19.30;75.30;;;;;;2073273;28;20033;-83
2021/07/22 00:55:18;;;;;;;6.57;4.60;;;19.30;75.40;;;;;;2070719;28;20425;-82
2021/07/22 00:56:19;;;;;;;6.93;4.40;;;19.30;75.40;;;;;;2073684;28;20026;-82
2021/07/22 00:57:20;;;;;;;7.47;4.95;;;19.30;75.50;;;;;;2064133;28;20030;-82
2021/07/22 00:58:20;;;;;;;7.57;5.13;;;19.30;75.50;;;;;;2056885;28;20031;-82
2021/07/22 00:59:21;;;;;;;6.85;4.60;;;19.30;75.60;;;;;;2073242;28;20030;-83
2021/07/22 01:00:23;;;;;;;8.13;5.30;;;19.30;75.60;;;;;;2063646;28;20512;-82
2021/07/22 01:01:23;;;;;;;7.32;4.78;;;19.30;75.60;;;;;;2060392;28;20110;-82
2021/07/22 01:02:24;;;;;;;7.47;5.30;;;19.30;76.30;;;;;;2072855;28;20412;-82
2021/07/22 01:03:25;;;;;;;6.95;4.50;;;19.30;75.70;;;;;;2063370;28;20586;-82
2021/07/22 01:04:25;;;;;;;6.88;4.93;;;19.30;75.80;;;;;;2063841;28;20141;-83
2021/07/22 01:05:26;;;;;;;8.40;4.75;;;19.20;75.90;;;;;;2073282;28;20061;-83
2021/07/22 01:06:27;;;;;;;7.63;5.00;;;19.20;76.00;;;;;;2090200;28;20402;-83
2021/07/22 01:07:27;;;;;;;7.68;5.10;;;19.20;76.10;;;;;;2080327;28;20033;-82
2021/07/22 01:08:28;;;;;;;7.30;4.78;;;19.20;76.10;;;;;;2080228;28;20041;-82
2021/07/22 01:09:28;;;;;;;7.45;4.80;;;19.20;76.20;;;;;;2072533;28;20384;-82
2021/07/22 01:10:30;;;;;;;6.88;4.70;;;19.20;76.30;;;;;;2047992;28;20076;-83
2021/07/22 01:11:30;;;;;;;7.05;4.70;;;19.20;76.40;;;;;;2047884;28;20162;-82
2021/07/22 01:12:31;;;;;;;6.80;4.63;;;19.20;76.40;;;;;;2063037;28;20481;-82
2021/07/22 01:13:32;;;;;;;7.55;4.95;;;19.20;76.40;;;;;;2081127;28;20038;-83
2021/07/22 01:14:33;;;;;;;6.45;4.53;;;19.20;76.50;;;;;;2064384;28;20497;-82
2021/07/22 01:15:34;;;;;;;6.63;4.68;;;19.20;76.60;;;;;;2056059;28;20422;-82
2021/07/22 01:16:34;;;;;;;7.90;4.88;;;19.20;76.60;;;;;;2072816;28;20125;-82
2021/07/22 01:17:47;;;;;;;7.10;4.57;;;19.10;76.60;;;;;;2065116;28;20517;-83
2021/07/22 01:18:47;;;;;;;7.10;4.53;;;19.10;76.70;;;;;;2067446;28;20034;-82
2021/07/22 01:19:48;;;;;;;6.75;4.35;;;19.10;76.70;;;;;;2080184;28;20491;-82
2021/07/22 01:20:48;;;;;;;6.78;4.40;;;19.10;76.80;;;;;;2089534;28;20490;-82
2021/07/22 01:21:49;;;;;;;8.30;5.22;;;19.10;76.80;;;;;;2078463;28;20022;-82
2021/07/22 01:22:51;;;;;;;7.28;4.82;;;19.10;76.90;;;;;;2064958;28;20042;-82
2021/07/22 01:23:53;;;;;;;7.07;4.93;;;19.10;76.90;;;;;;2064514;28;20105;-82
2021/07/22 01:24:53;;;;;;;6.70;4.72;;;19.10;77.00;;;;;;2071629;28;20129;-82
2021/07/22 01:25:54;;;;;;;6.70;4.53;;;19.10;77.00;;;;;;2073184;28;20133;-83
2021/07/22 01:26:54;;;;;;;6.65;4.80;;;19.00;77.00;;;;;;2070690;28;20030;-82
2021/07/22 01:27:56;;;;;;;7.45;4.88;;;19.00;77.20;;;;;;2065087;28;20030;-82
2021/07/22 01:28:56;;;;;;;6.70;4.70;;;19.00;77.20;;;;;;2073937;28;20022;-82
2021/07/22 01:29:57;;;;;;;6.88;4.75;;;19.00;77.20;;;;;;2081006;28;20446;-82
2021/07/22 01:30:58;;;;;;;7.25;4.53;;;19.00;77.30;;;;;;2089261;28;20028;-82
2021/07/22 01:32:05;;;;;;;7.32;5.30;;;19.00;77.30;;;;;;2080947;28;20052;-82
2021/07/22 01:33:06;;;;;;;6.70;4.68;;;19.00;77.40;;;;;;2065735;28;20129;-82
2021/07/22 01:34:07;;;;;;;6.97;4.75;;;19.00;77.40;;;;;;2072604;28;20029;-83
2021/07/22 01:35:09;;;;;;;7.78;4.90;;;19.00;77.40;;;;;;2073035;28;20030;-83
2021/07/22 01:36:10;;;;;;;7.53;4.80;;;19.00;77.40;;;;;;2080141;28;20030;-83
2021/07/22 01:37:10;;;;;;;7.32;4.80;;;19.00;77.40;;;;;;2080291;28;20483;-83
2021/07/22 01:38:11;;;;;;;6.50;4.70;;;19.00;77.50;;;;;;2081396;28;20064;-83
2021/07/22 01:39:11;;;;;;;7.65;4.82;;;19.00;77.50;;;;;;2072247;28;20395;-82
2021/07/22 01:40:13;;;;;;;7.72;4.55;;;19.00;77.60;;;;;;2072940;28;20492;-83
2021/07/22 01:41:14;;;;;;;8.07;4.95;;;19.00;77.60;;;;;;2074933;28;20022;-82
2021/07/22 01:42:14;;;;;;;7.05;5.03;;;19.00;77.70;;;;;;2078973;28;20033;-82
2021/07/22 01:43:15;;;;;;;7.70;5.00;;;18.90;77.70;;;;;;2080858;28;20794;-82
2021/07/22 01:44:16;;;;;;;6.75;4.80;;;18.90;77.70;;;;;;2064897;28;20408;-82
2021/07/22 01:45:17;;;;;;;7.07;5.13;;;18.90;77.80;;;;;;2071970;28;20022;-82
2021/07/22 01:46:21;;;;;;;7.80;5.00;;;18.90;77.80;;;;;;2073366;28;20037;-83
2021/07/22 01:47:21;;;;;;;7.05;4.60;;;18.90;77.90;;;;;;2080320;28;20079;-83
2021/07/22 01:48:22;;;;;;;7.88;5.15;;;18.80;77.90;;;;;;2064233;28;20451;-82
2021/07/22 01:49:23;;;;;;;7.25;5.07;;;18.80;78.00;;;;;;2064284;28;20081;-83
2021/07/22 01:50:23;;;;;;;8.10;5.30;;;18.80;78.20;;;;;;2080046;28;20045;-82
2021/07/22 01:51:24;;;;;;;6.80;4.82;;;18.80;78.30;;;;;;2072840;28;20041;-82
2021/07/22 01:52:24;;;;;;;7.53;5.10;;;18.70;78.30;;;;;;2081130;28;20034;-82
2021/07/22 01:53:25;;;;;;;7.78;5.53;;;18.70;78.30;;;;;;2064986;28;20416;-83
2021/07/22 01:54:30;;;;;;;7.43;5.20;;;18.70;78.40;;;;;;2071777;28;20054;-82
2021/07/22 01:55:31;;;;;;;7.38;4.80;;;18.70;78.50;;;;;;2070334;28;20055;-83
2021/07/22 01:56:32;;;;;;;7.65;5.00;;;18.70;78.50;;;;;;2073242;28;20593;-83
2021/07/22 01:57:32;;;;;;;7.13;4.85;;;18.70;78.50;;;;;;2069027;28;20026;-83
2021/07/22 01:58:33;;;;;;;7.13;5.07;;;18.70;78.60;;;;;;2072399;28;20472;-82
2021/07/22 01:59:36;;;;;;;7.80;5.50;;;18.70;78.60;;;;;;2071306;28;20077;-82
2021/07/22 02:00:37;;;;;;;8.10;5.47;;;18.70;78.60;;;;;;2072890;28;20091;-82
2021/07/22 02:01:38;;;;;;;7.75;5.40;;;18.60;78.60;;;;;;2064279;28;20161;-82
2021/07/22 02:02:38;;;;;;;7.78;5.45;;;18.60;78.50;;;;;;2064673;28;20487;-83
2021/07/22 02:03:39;;;;;;;8.40;5.60;;;18.60;78.50;;;;;;2070116;28;20140;-82
2021/07/22 02:04:40;;;;;;;8.48;5.70;;;18.60;78.60;;;;;;2080358;28;20474;-82
2021/07/22 02:05:41;;;;;;;8.82;5.78;;;18.50;78.70;;;;;;2080297;28;20036;-82
2021/07/22 02:06:41;;;;;;;8.63;6.10;;;18.50;78.80;;;;;;2069929;28;20878;-83
2021/07/22 02:07:42;;;;;;;9.07;5.95;;;18.50;79.00;;;;;;2068097;28;20483;-82
2021/07/22 02:08:42;;;;;;;8.25;5.72;;;18.40;79.00;;;;;;2072508;28;20037;-83
2021/07/22 02:09:43;;;;;;;9.23;5.68;;;18.30;79.10;;;;;;2081008;28;20498;-82
2021/07/22 02:10:44;;;;;;;9.18;5.70;;;18.40;79.20;;;;;;2068332;28;20033;-82
2021/07/22 02:11:44;;;;;;;9.55;6.05;;;18.40;79.30;;;;;;2071069;28;20531;-83
2021/07/22 02:12:45;;;;;;;8.63;5.75;;;18.30;79.30;;;;;;2080191;28;20044;-82
2021/07/22 02:13:46;;;;;;;8.75;5.88;;;18.30;79.40;;;;;;2081014;28;20408;-83
2021/07/22 02:14:50;;;;;;;8.68;5.90;;;18.20;79.40;;;;;;2064199;28;20114;-82
2021/07/22 02:15:50;;;;;;;9.82;6.28;;;18.20;79.50;;;;;;2054385;28;20131;-82
2021/07/22 02:16:51;;;;;;;10.18;6.82;;;18.20;79.70;;;;;;2065083;28;20575;-83
2021/07/22 02:17:52;;;;;;;9.25;5.80;;;18.20;79.80;;;;;;2072864;28;20065;-83
2021/07/22 02:18:52;;;;;;;8.90;6.00;;;18.10;79.80;;;;;;2071596;28;20033;-82
2021/07/22 02:19:53;;;;;;;9.45;6.32;;;18.10;79.90;;;;;;2080920;28;20563;-83
2021/07/22 02:20:54;;;;;;;7.85;5.45;;;18.10;80.00;;;;;;2073413;28;20038;-82
2021/07/22 02:21:54;;;;;;;8.20;5.55;;;18.10;80.00;;;;;;2073904;28;20073;-82
2021/07/22 02:22:55;;;;;;;8.07;5.70;;;18.10;80.70;;;;;;2066277;28;20038;-83
2021/07/22 02:23:55;;;;;;;8.35;5.95;;;18.10;80.10;;;;;;2057368;28;20469;-82
2021/07/22 02:24:56;;;;;;;7.68;5.65;;;18.10;80.20;;;;;;2068250;28;20034;-83
2021/07/22 02:25:57;;;;;;;8.70;6.38;;;18.10;80.20;;;;;;2073547;28;20057;-82
2021/07/22 02:27:00;;;;;;;8.88;6.10;;;18.10;80.30;;;;;;2066049;28;20117;-83
2021/07/22 02:28:00;;;;;;;8.10;5.80;;;18.10;80.30;;;;;;2074522;28;20026;-82
2021/07/22 02:29:01;;;;;;;8.30;5.97;;;18.10;80.30;;;;;;2073833;28;20036;-82
2021/07/22 02:30:05;;;;;;;8.90;6.03;;;18.10;80.40;;;;;;2073457;28;20530;-82
2021/07/22 02:31:05;;;;;;;8.93;5.93;;;18.10;80.40;;;;;;2082390;28;20557;-83
2021/07/22 02:32:06;;;;;;;8.80;6.25;;;18.00;80.30;;;;;;2074261;28;20061;-83
2021/07/22 02:33:07;;;;;;;8.65;6.03;;;18.00;80.30;;;;;;2066215;28;20041;-83
2021/07/22 02:34:08;;;;;;;9.57;6.38;;;18.00;80.40;;;;;;2073418;28;20040;-82
2021/07/22 02:35:09;;;;;;;9.82;6.57;;;18.00;80.60;;;;;;2080665;28;20029;-83
2021/07/22 02:36:10;;;;;;;10.60;6.85;;;17.90;80.60;;;;;;2080983;28;20037;-82
2021/07/22 02:37:10;;;;;;;9.93;6.70;;;18.00;80.80;;;;;;2072721;28;20069;-83
2021/07/22 02:38:11;;;;;;;10.15;7.13;;;17.90;80.80;;;;;;2067394;28;20131;-82
2021/07/22 02:39:11;;;;;;;10.90;7.32;;;17.90;81.00;;;;;;2075679;28;20029;-83
2021/07/22 02:40:13;;;;;;;9.80;6.72;;;17.80;81.00;;;;;;2068570;28;20045;-82
2021/07/22 02:41:14;;;;;;;9.80;6.97;;;17.80;81.20;;;;;;2066966;28;20034;-82
2021/07/22 02:42:14;;;;;;;10.48;6.80;;;17.80;81.30;;;;;;2066789;28;20516;-83
2021/07/22 02:43:15;;;;;;;9.60;6.55;;;17.70;81.30;;;;;;2067681;28;20145;-83
2021/07/22 02:44:15;;;;;;;9.38;6.10;;;17.70;81.40;;;;;;2070917;28;20030;-82
2021/07/22 02:45:16;;;;;;;11.40;6.80;;;17.70;81.50;;;;;;2063023;28;20030;-83
2021/07/22 02:46:17;;;;;;;8.57;6.13;;;17.70;81.60;;;;;;2074457;28;20436;-83
2021/07/22 02:47:17;;;;;;;9.75;6.47;;;17.70;81.50;;;;;;2072686;28;20056;-82
2021/07/22 02:48:18;;;;;;;9.13;6.28;;;17.70;81.60;;;;;;2066008;28;20465;-83
2021/07/22 02:49:19;;;;;;;9.18;6.60;;;17.70;81.50;;;;;;2068701;28;20014;-83
2021/07/22 02:50:19;;;;;;;9.25;6.68;;;17.70;81.50;;;;;;2063482;28;20121;-83
2021/07/22 02:51:20;;;;;;;9.73;6.30;;;17.70;81.60;;;;;;2074327;28;20034;-83
2021/07/22 02:52:21;;;;;;;9.05;6.22;;;17.70;81.70;;;;;;2072843;28;20508;-83
2021/07/22 02:53:21;;;;;;;8.88;6.18;;;17.70;81.70;;;;;;2057919;28;20041;-83
2021/07/22 02:54:22;;;;;;;9.98;7.13;;;17.70;81.70;;;;;;2055686;28;20055;-83
2021/07/22 02:55:23;;;;;;;10.65;6.57;;;17.70;81.70;;;;;;2064847;28;20085;-83
2021/07/22 02:56:23;;;;;;;9.73;6.40;;;17.60;81.80;;;;;;2064567;28;20073;-83
2021/07/22 02:57:25;;;;;;;9.32;6.30;;;17.60;81.90;;;;;;2066223;28;20041;-83
2021/07/22 02:58:27;;;;;;;9.23;6.57;;;17.60;81.90;;;;;;2068160;28;20106;-83
2021/07/22 02:59:27;;;;;;;9.65;6.75;;;17.60;82.00;;;;;;2066674;28;20038;-83
2021/07/22 03:00:28;;;;;;;10.40;6.53;;;17.60;82.10;;;;;;2070450;28;20041;-82
2021/07/22 03:01:29;;;;;;;9.18;6.47;;;17.60;82.10;;;;;;2065306;28;20085;-83
2021/07/22 03:02:30;;;;;;;9.90;6.82;;;17.60;82.10;;;;;;2072135;28;20080;-82
2021/07/22 03:03:31;;;;;;;8.90;6.45;;;17.60;82.10;;;;;;2087668;28;20040;-83
2021/07/22 03:04:32;;;;;;;9.48;6.32;;;17.60;82.20;;;;;;2073345;28;20022;-82
2021/07/22 03:05:33;;;;;;;9.73;6.53;;;17.50;82.20;;;;;;2065009;28;20034;-82
2021/07/22 03:06:34;;;;;;;8.60;6.30;;;17.60;82.30;;;;;;2065210;28;20038;-83
2021/07/22 03:07:35;;;;;;;10.25;6.80;;;17.60;82.30;;;;;;2057153;28;20031;-82
2021/07/22 03:08:35;;;;;;;10.82;6.50;;;17.50;82.30;;;;;;2064924;28;20181;-82
2021/07/22 03:09:36;;;;;;;9.50;6.60;;;17.50;82.40;;;;;;2083330;28;20403;-82
2021/07/22 03:10:37;;;;;;;9.93;6.55;;;17.60;82.50;;;;;;2076743;28;20464;-82
2021/07/22 03:11:38;;;;;;;10.52;6.82;;;17.60;82.50;;;;;;2079486;28;20443;-82
2021/07/22 03:12:38;;;;;;;9.88;6.63;;;17.50;82.40;;;;;;2070470;28;20026;-81
2021/07/22 03:13:39;;;;;;;9.70;7.05;;;17.50;82.50;;;;;;2073208;28;20126;-82
2021/07/22 03:14:40;;;;;;;10.52;7.13;;;17.50;82.60;;;;;;2081995;28;20029;-82
2021/07/22 03:15:40;;;;;;;10.52;7.43;;;17.50;82.60;;;;;;2073259;28;20033;-82
2021/07/22 03:16:41;;;;;;;11.40;7.75;;;17.50;82.70;;;;;;2082698;28;20044;-83
2021/07/22 03:17:42;;;;;;;10.85;7.40;;;17.40;82.80;;;;;;2081428;28;20025;-82
2021/07/22 03:18:42;;;;;;;10.25;7.28;;;17.40;82.90;;;;;;2080181;28;20060;-82
2021/07/22 03:19:43;;;;;;;9.55;6.68;;;17.40;83.00;;;;;;2065852;28;20018;-83
2021/07/22 03:20:43;;;;;;;11.23;7.07;;;17.40;83.10;;;;;;2064975;28;20112;-83
2021/07/22 03:21:44;;;;;;;11.35;6.75;;;17.30;83.10;;;;;;2073988;28;20392;-83
2021/07/22 03:22:45;;;;;;;10.57;7.00;;;17.30;83.20;;;;;;2076244;28;20037;-82
2021/07/22 03:23:45;;;;;;;12.07;7.63;;;17.30;83.30;;;;;;2065786;28;20034;-82
2021/07/22 03:24:51;;;;;;;10.30;6.85;;;17.40;83.30;;;;;;2073709;28;20038;-82
2021/07/22 03:25:52;;;;;;;10.80;7.28;;;17.40;83.40;;;;;;2082076;28;20026;-83
2021/07/22 03:26:52;;;;;;;10.38;7.10;;;17.40;83.40;;;;;;2074031;28;20030;-83
2021/07/22 03:27:57;;;;;;;10.18;7.35;;;17.30;83.30;;;;;;2071680;28;20060;-82
2021/07/22 03:28:57;;;;;;;10.55;7.15;;;17.30;83.30;;;;;;2073031;28;20034;-82
2021/07/22 03:29:58;;;;;;;11.57;7.32;;;17.40;83.30;;;;;;2073879;28;20467;-82
2021/07/22 03:30:59;;;;;;;10.80;7.20;;;17.30;83.40;;;;;;2073106;28;20050;-82
2021/07/22 03:32:00;;;;;;;9.95;7.15;;;17.30;83.40;;;;;;2081118;28;20396;-82
2021/07/22 03:33:01;;;;;;;9.98;7.05;;;17.30;83.40;;;;;;2082045;28;20061;-82
2021/07/22 03:34:02;;;;;;;10.50;7.10;;;17.30;83.40;;;;;;2072800;28;20042;-82
2021/07/22 03:35:03;;;;;;;9.43;6.57;;;17.40;84.00;;;;;;2065809;28;20416;-82
2021/07/22 03:36:07;;;;;;;9.63;6.82;;;17.40;83.50;;;;;;2079892;28;20124;-82
2021/07/22 03:37:07;;;;;;;10.45;7.53;;;17.40;83.40;;;;;;2085260;28;21299;-82
2021/07/22 03:38:08;;;;;;;9.80;6.75;;;17.30;83.40;;;;;;2065690;28;20058;-82
2021/07/22 03:39:09;;;;;;;10.05;7.28;;;17.40;83.50;;;;;;2070392;28;20578;-82
2021/07/22 03:40:10;;;;;;;9.80;7.45;;;17.40;83.50;;;;;;2081679;28;20033;-82
2021/07/22 03:41:15;;;;;;;10.05;6.90;;;17.40;83.50;;;;;;2074887;28;20116;-81
2021/07/22 03:42:16;;;;;;;11.10;6.80;;;17.40;83.60;;;;;;2073122;28;20041;-82
2021/07/22 03:43:16;;;;;;;11.65;7.38;;;17.40;83.50;;;;;;2081492;28;20105;-82
2021/07/22 03:44:17;;;;;;;10.82;7.05;;;17.40;83.40;;;;;;2072861;28;20032;-82
2021/07/22 03:45:18;;;;;;;11.10;6.90;;;17.40;83.40;;;;;;2072605;28;20084;-82
2021/07/22 03:46:18;;;;;;;10.02;6.80;;;17.50;83.50;;;;;;2081130;28;20068;-82
2021/07/22 03:47:19;;;;;;;9.88;6.88;;;17.50;83.40;;;;;;2065749;28;20097;-82
2021/07/22 03:48:20;;;;;;;9.98;6.82;;;17.50;83.40;;;;;;2057693;28;20065;-82
2021/07/22 03:49:20;;;;;;;10.30;6.97;;;17.50;83.40;;;;;;2073078;28;20014;-82
2021/07/22 03:50:21;;;;;;;10.07;6.88;;;17.50;83.40;;;;;;2069533;28;20076;-82
2021/07/22 03:51:22;;;;;;;10.07;6.45;;;17.50;83.30;;;;;;2065644;28;20034;-82
2021/07/22 03:52:22;;;;;;;9.10;6.35;;;17.50;83.30;;;;;;2065507;28;20551;-82
2021/07/22 03:53:23;;;;;;;9.02;6.30;;;17.50;83.40;;;;;;2065204;28;20546;-82
2021/07/22 03:54:24;;;;;;;9.40;6.45;;;17.50;83.40;;;;;;2072761;28;20053;-82
2021/07/22 03:55:25;;;;;;;11.45;6.70;;;17.50;83.40;;;;;;2080538;28;20025;-82
2021/07/22 03:56:27;;;;;;;8.95;6.40;;;17.50;83.40;;;;;;2083948;28;20071;-83
2021/07/22 03:57:27;;;;;;;9.07;6.25;;;17.50;83.40;;;;;;2091059;28;20467;-82
2021/07/22 03:58:28;;;;;;;10.18;6.75;;;17.50;83.40;;;;;;2091859;28;20044;-82
2021/07/22 03:59:29;;;;;;;9.82;6.53;;;17.50;83.40;;;;;;2081346;28;20026;-82
2021/07/22 04:00:31;;;;;;;9.35;6.38;;;17.60;83.40;;;;;;2073617;28;20065;-82
2021/07/22 04:01:31;;;;;;;8.95;6.28;;;17.60;83.30;;;;;;2074645;28;20030;-83
2021/07/22 04:02:32;;;;;;;10.70;7.18;;;17.60;83.20;;;;;;2074487;28;20583;-82
2021/07/22 04:03:35;;;;;;;10.52;6.85;;;17.60;83.10;;;;;;2064823;28;20607;-82
2021/07/22 04:04:36;;;;;;;8.90;6.78;;;17.60;83.10;;;;;;2066008;28;20511;-82
2021/07/22 04:05:37;;;;;;;9.73;6.63;;;17.60;83.00;;;;;;2074360;28;20065;-82
2021/07/22 04:06:38;;;;;;;9.35;6.40;;;17.70;83.10;;;;;;2081304;28;20075;-82
2021/07/22 04:07:39;;;;;;;9.40;6.57;;;17.70;83.00;;;;;;2065910;28;20027;-82
2021/07/22 04:08:39;;;;;;;10.70;6.45;;;17.70;83.60;;;;;;2076825;28;20034;-82
2021/07/22 04:09:40;;;;;;;10.95;6.63;;;17.70;83.00;;;;;;2070048;28;20094;-82
2021/07/22 04:10:41;;;;;;;10.25;6.53;;;17.70;82.90;;;;;;2070105;28;20133;-82
2021/07/22 04:11:42;;;;;;;8.10;5.82;;;17.70;82.90;;;;;;2069858;28;20022;-82
2021/07/22 04:12:42;;;;;;;9.57;6.15;;;17.70;82.80;;;;;;2084755;28;20037;-82
2021/07/22 04:13:43;;;;;;;9.48;6.68;;;17.70;82.80;;;;;;2072181;28;20108;-81
2021/07/22 04:14:44;;;;;;;9.23;6.78;;;17.70;82.80;;;;;;2057318;28;20070;-82
2021/07/22 04:15:44;;;;;;;9.38;6.72;;;17.70;83.30;;;;;;2065466;28;20081;-82
2021/07/22 04:16:45;;;;;;;9.25;6.40;;;17.70;82.70;;;;;;2083278;28;20139;-81
2021/07/22 04:17:49;;;;;;;9.13;6.50;;;17.70;82.70;;;;;;2071406;28;20029;-82
2021/07/22 04:18:50;;;;;;;8.70;6.28;;;17.70;82.70;;;;;;2071418;28;20038;-82
2021/07/22 04:19:51;;;;;;;8.82;6.38;;;17.80;82.70;;;;;;2079246;28;20412;-83
2021/07/22 04:20:51;;;;;;;9.93;6.75;;;17.80;82.70;;;;;;2082105;28;20029;-84
2021/07/22 04:21:52;;;;;;;9.25;6.07;;;17.80;82.70;;;;;;2065801;28;20022;-83
2021/07/22 04:22:58;;;;;;;10.00;6.80;;;17.80;82.70;;;;;;2058069;28;20549;-83
2021/07/22 04:23:58;;;;;;;8.75;6.07;;;17.80;82.70;;;;;;2076911;28;20764;-82
2021/07/22 04:24:59;;;;;;;8.95;6.25;;;17.80;82.70;;;;;;2082086;28;20097;-83
2021/07/22 04:26:00;;;;;;;9.75;6.47;;;17.80;82.60;;;;;;2073503;28;20061;-82
2021/07/22 04:27:00;;;;;;;8.25;5.80;;;17.80;82.60;;;;;;2073511;28;20471;-82
2021/07/22 04:28:01;;;;;;;9.73;6.20;;;17.80;82.60;;;;;;2081456;28;20577;-82
2021/07/22 04:29:01;;;;;;;9.85;6.93;;;17.80;82.60;;;;;;2077551;28;20534;-82
2021/07/22 04:30:03;;;;;;;9.40;6.53;;;17.80;82.60;;;;;;2073427;28;20476;-83
2021/07/22 04:31:03;;;;;;;10.05;6.43;;;17.80;82.50;;;;;;2072624;28;20029;-82
2021/07/22 04:32:04;;;;;;;9.07;6.25;;;17.80;82.60;;;;;;2065414;28;20397;-83
2021/07/22 04:33:06;;;;;;;10.30;6.68;;;17.80;82.60;;;;;;2056557;28;20117;-82
2021/07/22 04:34:06;;;;;;;9.48;6.60;;;17.80;82.60;;;;;;2073405;28;20534;-83
2021/07/22 04:35:08;;;;;;;9.48;6.50;;;17.90;82.60;;;;;;2084989;28;20025;-83
2021/07/22 04:36:09;;;;;;;10.45;6.43;;;17.90;82.50;;;;;;2072840;28;20131;-82
2021/07/22 04:37:10;;;;;;;8.15;5.80;;;17.80;82.50;;;;;;2073197;28;20179;-82
2021/07/22 04:38:10;;;;;;;8.80;6.20;;;17.90;82.50;;;;;;2065184;28;20033;-82
2021/07/22 04:39:11;;;;;;;8.93;6.35;;;17.90;82.50;;;;;;2064809;28;20083;-82
2021/07/22 04:40:12;;;;;;;10.30;6.80;;;17.80;82.40;;;;;;2076417;28;20496;-82
2021/07/22 04:41:12;;;;;;;9.82;6.50;;;17.90;82.50;;;;;;2089799;28;20079;-82
2021/07/22 04:42:13;;;;;;;8.45;6.60;;;17.90;82.40;;;;;;2082971;28;20032;-82
2021/07/22 04:43:13;;;;;;;8.75;6.30;;;17.90;82.40;;;;;;2056203;28;20062;-82
2021/07/22 04:44:14;;;;;;;8.75;6.53;;;17.90;82.40;;;;;;2061828;28;20057;-82
2021/07/22 04:45:15;;;;;;;8.32;6.13;;;17.90;82.40;;;;;;2066166;28;20045;-82
2021/07/22 04:46:15;;;;;;;9.23;6.32;;;17.90;82.40;;;;;;2064127;28;20488;-82
2021/07/22 04:47:16;;;;;;;9.15;6.20;;;17.90;82.50;;;;;;2064826;28;20022;-82
2021/07/22 04:48:17;;;;;;;8.93;6.25;;;17.90;82.40;;;;;;2064595;28;20026;-82
2021/07/22 04:49:17;;;;;;;9.70;6.53;;;17.90;82.40;;;;;;2055894;28;20026;-83
2021/07/22 04:50:18;;;;;;;8.50;6.22;;;17.90;82.40;;;;;;2056989;28;20081;-82
2021/07/22 04:51:19;;;;;;;8.65;6.05;;;17.90;82.40;;;;;;2073162;28;20026;-82
2021/07/22 04:52:19;;;;;;;8.95;6.13;;;17.90;82.30;;;;;;2054718;28;20031;-82
2021/07/22 04:53:20;;;;;;;9.55;6.65;;;17.90;82.40;;;;;;2057275;28;20118;-83
2021/07/22 04:54:21;;;;;;;9.20;6.43;;;17.90;82.30;;;;;;2072604;28;20022;-82
2021/07/22 04:55:21;;;;;;;9.20;6.43;;;17.90;82.30;;;;;;2081496;28;20460;-83
2021/07/22 04:56:22;;;;;;;8.65;6.50;;;17.90;82.30;;;;;;2073275;28;20411;-83
2021/07/22 04:57:22;;;;;;;8.77;5.88;;;17.90;82.30;;;;;;2072397;28;20547;-83
2021/07/22 04:58:23;;;;;;;9.45;6.65;;;17.90;82.30;;;;;;2081117;28;20063;-83
2021/07/22 04:59:24;;;;;;;7.95;6.15;;;17.90;82.30;;;;;;2071373;28;20037;-82
2021/07/22 05:00:24;;;;;;;8.93;6.30;;;17.90;82.20;;;;;;2071247;28;20140;-82
2021/07/22 05:01:25;;;;;;;9.57;6.60;;;17.90;82.20;;;;;;2071678;28;20069;-82
2021/07/22 05:02:26;;;;;;;9.05;6.10;;;17.90;82.20;;;;;;2056740;28;20492;-83
2021/07/22 05:03:26;;;;;;;9.35;6.80;;;18.00;82.20;;;;;;2064538;28;20097;-83
2021/07/22 05:04:27;;;;;;;8.95;6.30;;;17.90;82.10;;;;;;2064409;28;20026;-83
2021/07/22 05:05:29;;;;;;;9.25;6.47;;;17.90;82.10;;;;;;2069527;28;20030;-82
2021/07/22 05:06:29;;;;;;;9.23;6.75;;;17.90;82.10;;;;;;2071816;28;20018;-83
2021/07/22 05:07:30;;;;;;;10.73;7.03;;;18.00;82.10;;;;;;2063994;28;20033;-82
2021/07/22 05:08:31;;;;;;;9.02;6.45;;;17.90;82.00;;;;;;2056821;28;20393;-83
2021/07/22 05:09:31;;;;;;;9.70;6.80;;;18.00;82.10;;;;;;2055427;28;20042;-83
2021/07/22 05:10:32;;;;;;;8.55;6.13;;;18.00;82.10;;;;;;2060460;28;20031;-82
2021/07/22 05:11:33;;;;;;;10.05;7.15;;;18.00;82.10;;;;;;2069499;28;20041;-82
2021/07/22 05:12:33;;;;;;;10.63;7.57;;;18.00;82.60;;;;;;2064993;28;20022;-82
2021/07/22 05:13:39;;;;;;;10.25;7.43;;;18.00;81.90;;;;;;2064871;28;20062;-82
2021/07/22 05:14:39;;;;;;;9.60;7.13;;;18.00;81.90;;;;;;2069811;28;20162;-83
2021/07/22 05:15:40;;;;;;;8.85;6.57;;;18.10;81.80;;;;;;2066664;28;20045;-82
2021/07/22 05:16:41;;;;;;;9.65;6.63;;;18.20;81.80;;;;;;2071715;28;20034;-82
2021/07/22 05:17:41;;;;;;;9.48;6.70;;;18.20;81.80;;;;;;2056924;28;20070;-83